Time;durP1;ratioP1;P1;durP2;ratioP2;P2;SDS_P1;SDS_P2;PMS_P1;PMS_P2;Temp;Humidity;BMP_temperature;BMP_pressure;BME280_temperature;BME280_humidity;BME280_pressure;Samples;Min_cycle;Max_cycle;Signal;HPM_P1;HPM_P2
2021/06/06 00:01:53;;;;;;;14.90;13.60;;;;;;;;;;5031807;28;20475;-65
2021/06/06 00:04:21;;;;;;;19.07;17.37;;;;;;;;;;5030326;28;20476;-65
2021/06/06 00:06:48;;;;;;;14.67;13.53;;;;;;;;;;5029647;28;20501;-65
2021/06/06 00:09:17;;;;;;;15.40;14.20;;;;;;;;;;5031920;28;20472;-65
2021/06/06 00:11:44;;;;;;;13.27;12.00;;;;;;;;;;5031227;28;20465;-65
2021/06/06 00:14:12;;;;;;;21.70;20.13;;;;;;;;;;5030207;28;20461;-65
2021/06/06 00:16:40;;;;;;;17.63;16.20;;;;;;;;;;5026082;28;20991;-65
2021/06/06 00:19:07;;;;;;;19.17;17.67;;;;;;;;;;5027788;28;21000;-65
2021/06/06 00:21:35;;;;;;;16.50;15.30;;;;;;;;;;5031516;28;20440;-65
2021/06/06 00:24:02;;;;;;;19.60;18.20;;;;;;;;;;5030143;28;21101;-64
2021/06/06 00:26:30;;;;;;;18.03;16.50;;;;;;;;;;5039376;28;20958;-65
2021/06/06 00:28:56;;;;;;;16.57;15.27;;;;;;;;;;5042105;28;21022;-65
2021/06/06 00:31:23;;;;;;;16.70;15.40;;;;;;;;;;5032048;28;20457;-65
2021/06/06 00:33:50;;;;;;;19.30;17.80;;;;;;;;;;5028907;28;20465;-66
2021/06/06 00:36:18;;;;;;;16.67;15.37;;;;;;;;;;5030892;28;20448;-65
2021/06/06 00:38:44;;;;;;;21.00;19.50;;;;;;;;;;5030746;28;20511;-64
2021/06/06 00:41:12;;;;;;;18.30;16.70;;;;;;;;;;5030919;28;20475;-64
2021/06/06 00:43:40;;;;;;;18.53;17.23;;;;;;;;;;5030382;28;20484;-65
2021/06/06 00:46:07;;;;;;;20.93;19.47;;;;;;;;;;5030648;28;20484;-65
2021/06/06 00:48:34;;;;;;;17.10;15.80;;;;;;;;;;5030515;28;20488;-64
2021/06/06 00:51:02;;;;;;;21.50;19.90;;;;;;;;;;5030685;28;20475;-63
2021/06/06 00:53:31;;;;;;;20.23;18.70;;;;;;;;;;5031586;28;20449;-63
2021/06/06 00:55:58;;;;;;;19.10;17.60;;;;;;;;;;5028742;28;20468;-65
2021/06/06 00:58:24;;;;;;;20.10;18.53;;;;;;;;;;5030073;28;20500;-64
2021/06/06 01:00:54;;;;;;;17.50;16.30;;;;;;;;;;5029868;28;20474;-64
2021/06/06 01:03:22;;;;;;;19.80;18.30;;;;;;;;;;5030385;28;20460;-65
2021/06/06 01:05:51;;;;;;;18.93;17.57;;;;;;;;;;5029452;28;20559;-65
2021/06/06 01:08:19;;;;;;;20.17;18.67;;;;;;;;;;5030936;28;20469;-64
2021/06/06 01:10:47;;;;;;;18.60;17.30;;;;;;;;;;5029385;28;20448;-65
2021/06/06 01:13:16;;;;;;;24.00;22.27;;;;;;;;;;5031046;28;20452;-65
2021/06/06 01:15:46;;;;;;;19.40;17.90;;;;;;;;;;5029285;28;20449;-64
2021/06/06 01:18:20;;;;;;;20.07;18.63;;;;;;;;;;5030431;28;20563;-64
2021/06/06 01:20:53;;;;;;;21.60;20.00;;;;;;;;;;5028259;28;20559;-64
2021/06/06 01:23:27;;;;;;;20.87;19.33;;;;;;;;;;5025355;28;20587;-65
2021/06/06 01:25:58;;;;;;;23.43;21.47;;;;;;;;;;5029340;28;20476;-64
2021/06/06 01:28:26;;;;;;;19.90;18.40;;;;;;;;;;5030875;28;20484;-64
2021/06/06 01:30:56;;;;;;;20.57;19.07;;;;;;;;;;5034418;28;20453;-65
2021/06/06 01:33:24;;;;;;;22.30;20.60;;;;;;;;;;5034034;28;20474;-65
2021/06/06 01:35:53;;;;;;;24.27;22.50;;;;;;;;;;5029903;28;20456;-64
2021/06/06 01:38:22;;;;;;;21.17;19.67;;;;;;;;;;5034149;28;20531;-64
2021/06/06 01:40:51;;;;;;;21.57;19.87;;;;;;;;;;5033708;28;20465;-65
2021/06/06 01:43:22;;;;;;;23.07;21.40;;;;;;;;;;5033504;28;21227;-65
2021/06/06 01:45:50;;;;;;;21.83;20.23;;;;;;;;;;5033789;28;20479;-64
2021/06/06 01:48:17;;;;;;;24.00;22.20;;;;;;;;;;5034318;28;20975;-64
2021/06/06 01:50:46;;;;;;;22.97;21.30;;;;;;;;;;5033547;28;20464;-64
2021/06/06 01:53:14;;;;;;;28.83;26.63;;;;;;;;;;5034015;28;20445;-63
2021/06/06 01:55:42;;;;;;;23.50;21.80;;;;;;;;;;5031518;28;20986;-64
2021/06/06 01:58:09;;;;;;;22.73;20.97;;;;;;;;;;5033303;28;20482;-64
2021/06/06 02:00:38;;;;;;;23.30;21.50;;;;;;;;;;5032094;28;20468;-63
2021/06/06 02:03:07;;;;;;;25.90;24.00;;;;;;;;;;5033691;28;20475;-64
2021/06/06 02:05:34;;;;;;;24.40;22.63;;;;;;;;;;5032203;28;20484;-64
2021/06/06 02:08:02;;;;;;;25.83;23.87;;;;;;;;;;5034237;28;20469;-65
2021/06/06 02:10:30;;;;;;;23.37;21.43;;;;;;;;;;5032620;28;20540;-64
2021/06/06 02:13:00;;;;;;;25.40;23.57;;;;;;;;;;5034276;28;20454;-65
2021/06/06 02:15:33;;;;;;;25.97;23.87;;;;;;;;;;5032350;28;20464;-64
2021/06/06 02:18:02;;;;;;;23.73;21.80;;;;;;;;;;5033324;28;20476;-65
2021/06/06 02:20:30;;;;;;;28.00;25.70;;;;;;;;;;5032484;28;20464;-64
2021/06/06 02:22:58;;;;;;;24.40;22.10;;;;;;;;;;5032386;28;20506;-64
2021/06/06 02:25:25;;;;;;;24.67;22.97;;;;;;;;;;5032454;28;20538;-64
2021/06/06 02:27:59;;;;;;;26.03;24.03;;;;;;;;;;5022197;28;20469;-65
2021/06/06 02:30:28;;;;;;;24.10;22.30;;;;;;;;;;5032749;28;20464;-65
2021/06/06 02:32:57;;;;;;;26.23;24.23;;;;;;;;;;5033777;28;20448;-65
2021/06/06 02:35:27;;;;;;;24.93;23.03;;;;;;;;;;5030616;28;20464;-64
2021/06/06 02:37:56;;;;;;;24.83;23.00;;;;;;;;;;5019905;28;20496;-64
2021/06/06 02:40:26;;;;;;;24.33;22.43;;;;;;;;;;5031752;28;20469;-64
2021/06/06 02:42:53;;;;;;;24.90;22.90;;;;;;;;;;5031906;28;20469;-64
2021/06/06 02:45:21;;;;;;;25.03;23.03;;;;;;;;;;5032856;28;20853;-66
2021/06/06 02:47:49;;;;;;;25.50;23.60;;;;;;;;;;5031429;28;20481;-65
2021/06/06 02:50:18;;;;;;;22.90;21.13;;;;;;;;;;5032449;28;20546;-65
2021/06/06 02:52:48;;;;;;;23.07;21.30;;;;;;;;;;5027592;28;20821;-64
2021/06/06 02:55:17;;;;;;;25.07;23.10;;;;;;;;;;5032071;28;20461;-64
2021/06/06 02:57:46;;;;;;;24.73;22.43;;;;;;;;;;5032521;28;20480;-64
2021/06/06 03:00:16;;;;;;;27.60;25.20;;;;;;;;;;5032386;28;20468;-64
2021/06/06 03:02:44;;;;;;;27.80;25.27;;;;;;;;;;5033158;28;20487;-65
2021/06/06 03:05:13;;;;;;;24.67;22.77;;;;;;;;;;5031243;28;20488;-64
2021/06/06 03:07:41;;;;;;;23.83;22.03;;;;;;;;;;5032270;28;20480;-64
2021/06/06 03:10:10;;;;;;;25.03;22.73;;;;;;;;;;5032626;28;20982;-64
2021/06/06 03:12:38;;;;;;;25.50;23.30;;;;;;;;;;5032696;28;20471;-64
2021/06/06 03:15:06;;;;;;;22.07;20.30;;;;;;;;;;5032328;28;20514;-65
2021/06/06 03:17:35;;;;;;;23.67;21.60;;;;;;;;;;5031873;28;20476;-64
2021/06/06 03:20:05;;;;;;;26.50;24.30;;;;;;;;;;5029111;28;20476;-64
2021/06/06 03:22:33;;;;;;;27.63;25.40;;;;;;;;;;5013164;28;20444;-65
2021/06/06 03:25:02;;;;;;;28.87;26.57;;;;;;;;;;5022228;28;21056;-64
2021/06/06 03:27:34;;;;;;;25.40;23.33;;;;;;;;;;5031507;28;20823;-65
2021/06/06 03:30:04;;;;;;;28.43;26.03;;;;;;;;;;5032102;28;20464;-64
2021/06/06 03:32:32;;;;;;;27.40;25.20;;;;;;;;;;5032382;28;20885;-65
2021/06/06 03:34:59;;;;;;;27.10;24.83;;;;;;;;;;5031923;28;20464;-64
2021/06/06 03:37:26;;;;;;;27.00;24.60;;;;;;;;;;5031292;28;20480;-64
2021/06/06 03:39:53;;;;;;;29.83;27.53;;;;;;;;;;5031132;28;20465;-66
2021/06/06 03:42:19;;;;;;;26.20;24.03;;;;;;;;;;5031226;28;20826;-63
2021/06/06 03:44:47;;;;;;;27.43;25.13;;;;;;;;;;5032588;28;20498;-64
2021/06/06 03:47:14;;;;;;;28.27;25.97;;;;;;;;;;5030257;28;20828;-64
2021/06/06 03:49:41;;;;;;;29.90;27.60;;;;;;;;;;5032132;28;20458;-65
2021/06/06 03:52:08;;;;;;;24.40;22.50;;;;;;;;;;5030834;28;20475;-64
2021/06/06 03:54:35;;;;;;;25.13;23.13;;;;;;;;;;5031069;28;20472;-66
2021/06/06 03:57:01;;;;;;;26.50;24.40;;;;;;;;;;5031590;28;20823;-64
2021/06/06 03:59:28;;;;;;;26.20;24.20;;;;;;;;;;5021645;22;20502;-64
2021/06/06 04:01:56;;;;;;;30.60;28.20;;;;;;;;;;4994489;28;20442;-61
2021/06/06 04:04:23;;;;;;;24.67;22.70;;;;;;;;;;4993705;28;20470;-61
2021/06/06 04:06:49;;;;;;;29.13;26.73;;;;;;;;;;4994043;28;20545;-61
2021/06/06 04:09:17;;;;;;;26.73;24.73;;;;;;;;;;5004009;28;20543;-62
2021/06/06 04:11:44;;;;;;;31.90;29.30;;;;;;;;;;5004068;28;21025;-61
2021/06/06 04:14:11;;;;;;;34.00;31.00;;;;;;;;;;5003699;28;20475;-62
2021/06/06 04:16:37;;;;;;;27.00;24.80;;;;;;;;;;5004292;28;20970;-62
2021/06/06 04:19:06;;;;;;;26.00;23.73;;;;;;;;;;5004373;28;20554;-62
2021/06/06 04:21:33;;;;;;;28.93;26.60;;;;;;;;;;5006431;28;20433;-62
2021/06/06 04:24:00;;;;;;;25.03;22.93;;;;;;;;;;5005419;28;20999;-61
2021/06/06 04:26:27;;;;;;;26.50;24.43;;;;;;;;;;4999862;28;20850;-61
2021/06/06 04:28:54;;;;;;;25.53;23.53;;;;;;;;;;4991523;28;21001;-61
2021/06/06 04:31:21;;;;;;;29.17;26.87;;;;;;;;;;4992845;28;20450;-62
2021/06/06 04:33:47;;;;;;;29.27;26.87;;;;;;;;;;4992062;28;20466;-62
2021/06/06 04:36:15;;;;;;;26.10;23.90;;;;;;;;;;4992096;28;20546;-62
2021/06/06 04:38:42;;;;;;;27.50;25.30;;;;;;;;;;4991609;28;20497;-62
2021/06/06 04:41:10;;;;;;;21.00;19.30;;;;;;;;;;4990554;28;20553;-62
2021/06/06 04:43:37;;;;;;;30.77;28.37;;;;;;;;;;4992325;28;20454;-62
2021/06/06 04:46:04;;;;;;;29.83;27.30;;;;;;;;;;4984748;28;20487;-62
2021/06/06 04:48:31;;;;;;;22.63;20.80;;;;;;;;;;4972874;28;20477;-62
2021/06/06 04:50:59;;;;;;;28.30;25.73;;;;;;;;;;4982983;28;20517;-61
2021/06/06 04:53:27;;;;;;;25.93;23.83;;;;;;;;;;4991036;28;20465;-62
2021/06/06 04:55:56;;;;;;;25.00;22.70;;;;;;;;;;4988649;28;20458;-62
2021/06/06 04:58:23;;;;;;;31.00;28.60;;;;;;;;;;4989883;28;20500;-62
2021/06/06 05:00:49;;;;;;;22.87;20.93;;;;;;;;;;4989340;28;21023;-63
2021/06/06 05:03:17;;;;;;;27.10;25.00;;;;;;;;;;4989601;28;20498;-62
2021/06/06 05:05:44;;;;;;;29.07;26.87;;;;;;;;;;4989504;28;20482;-62
2021/06/06 05:08:11;;;;;;;20.03;18.43;;;;;;;;;;4991331;28;20483;-62
2021/06/06 05:10:40;;;;;;;25.43;23.43;;;;;;;;;;4990773;28;20466;-62
2021/06/06 05:13:07;;;;;;;26.57;24.47;;;;;;;;;;4993378;28;20600;-62
2021/06/06 05:15:33;;;;;;;24.10;22.10;;;;;;;;;;4993601;28;20462;-62
2021/06/06 05:18:00;;;;;;;26.53;24.20;;;;;;;;;;4982885;28;20482;-63
2021/06/06 05:20:28;;;;;;;30.43;27.83;;;;;;;;;;4986203;28;20831;-63
2021/06/06 05:22:54;;;;;;;28.77;26.57;;;;;;;;;;4993735;28;20462;-63
2021/06/06 05:25:21;;;;;;;27.03;24.93;;;;;;;;;;4992301;28;20497;-62
2021/06/06 05:27:49;;;;;;;28.10;25.80;;;;;;;;;;4990123;28;20470;-63
2021/06/06 05:30:18;;;;;;;32.60;30.03;;;;;;;;;;4992842;28;20470;-62
2021/06/06 05:32:44;;;;;;;22.40;20.33;;;;;;;;;;4993735;28;20465;-62
2021/06/06 05:35:11;;;;;;;20.00;18.20;;;;;;;;;;4992406;28;20533;-62
2021/06/06 05:37:38;;;;;;;18.13;16.73;;;;;;;;;;4993843;28;20477;-62
2021/06/06 05:40:05;;;;;;;23.93;22.03;;;;;;;;;;4993252;28;20481;-62
2021/06/06 05:42:32;;;;;;;20.60;18.80;;;;;;;;;;4991944;28;20993;-62
2021/06/06 05:45:00;;;;;;;21.20;19.40;;;;;;;;;;4979404;28;20494;-63
2021/06/06 05:47:26;;;;;;;20.53;18.83;;;;;;;;;;4989313;28;20469;-62
2021/06/06 05:49:53;;;;;;;25.87;23.83;;;;;;;;;;4990230;28;20486;-62
2021/06/06 05:52:20;;;;;;;19.23;17.73;;;;;;;;;;4992682;28;20450;-63
2021/06/06 05:54:46;;;;;;;20.70;18.90;;;;;;;;;;4975626;28;20454;-62
2021/06/06 05:57:13;;;;;;;21.20;18.97;;;;;;;;;;4988090;28;20450;-62
2021/06/06 05:59:39;;;;;;;24.20;22.10;;;;;;;;;;4994994;28;20482;-63
2021/06/06 06:02:08;;;;;;;20.77;18.77;;;;;;;;;;4981870;28;20451;-63
2021/06/06 06:04:34;;;;;;;22.67;20.77;;;;;;;;;;4991021;28;20466;-63
2021/06/06 06:07:01;;;;;;;23.07;21.20;;;;;;;;;;4992620;28;20455;-63
2021/06/06 06:09:28;;;;;;;25.20;22.97;;;;;;;;;;4990417;28;20490;-63
2021/06/06 06:11:54;;;;;;;24.13;22.03;;;;;;;;;;4982181;28;20467;-63
2021/06/06 06:14:21;;;;;;;21.40;19.70;;;;;;;;;;4982720;28;20462;-63
2021/06/06 06:16:48;;;;;;;20.43;18.83;;;;;;;;;;4993708;28;20449;-63
2021/06/06 06:19:15;;;;;;;20.23;18.60;;;;;;;;;;4992968;28;20496;-63
2021/06/06 06:21:43;;;;;;;21.50;19.80;;;;;;;;;;4987727;28;20785;-63
2021/06/06 06:24:11;;;;;;;22.43;20.53;;;;;;;;;;4988724;28;20465;-63
2021/06/06 06:26:37;;;;;;;18.63;16.93;;;;;;;;;;4993860;28;20478;-63
2021/06/06 06:29:04;;;;;;;16.90;15.47;;;;;;;;;;4994458;28;20467;-63
2021/06/06 06:31:30;;;;;;;18.10;16.67;;;;;;;;;;4988904;28;20455;-66
2021/06/06 06:33:59;;;;;;;18.07;16.60;;;;;;;;;;4988050;28;20466;-67
2021/06/06 06:36:27;;;;;;;17.20;15.90;;;;;;;;;;4989094;28;20455;-67
2021/06/06 06:38:55;;;;;;;16.80;15.40;;;;;;;;;;4987438;28;20475;-66
2021/06/06 06:41:23;;;;;;;15.70;14.50;;;;;;;;;;4974865;28;20466;-66
2021/06/06 06:43:50;;;;;;;16.80;15.27;;;;;;;;;;4983440;28;20847;-64
2021/06/06 06:46:17;;;;;;;17.70;16.20;;;;;;;;;;4979266;28;20513;-64
2021/06/06 06:48:43;;;;;;;15.97;14.60;;;;;;;;;;4975781;28;20528;-62
2021/06/06 06:51:11;;;;;;;15.43;13.93;;;;;;;;;;4974921;28;20463;-62
2021/06/06 06:53:38;;;;;;;14.53;13.23;;;;;;;;;;4974616;28;20447;-61
2021/06/06 06:56:05;;;;;;;13.57;12.27;;;;;;;;;;4974201;28;20555;-62
2021/06/06 06:58:32;;;;;;;16.97;13.97;;;;;;;;;;4974372;28;20490;-61
2021/06/06 07:00:58;;;;;;;13.30;12.30;;;;;;;;;;4974536;28;20462;-63
2021/06/06 07:03:26;;;;;;;12.83;11.53;;;;;;;;;;4979550;28;20510;-63
2021/06/06 07:05:53;;;;;;;11.33;10.43;;;;;;;;;;4986931;28;20504;-64
2021/06/06 07:08:21;;;;;;;12.20;11.03;;;;;;;;;;4993867;28;20855;-61
2021/06/06 07:10:50;;;;;;;11.90;10.60;;;;;;;;;;4993836;28;20450;-63
2021/06/06 07:13:16;;;;;;;19.00;17.53;;;;;;;;;;4993836;28;20516;-63
2021/06/06 07:15:43;;;;;;;12.33;11.37;;;;;;;;;;4973182;28;20474;-63
2021/06/06 07:18:14;;;;;;;12.43;11.50;;;;;;;;;;4992236;28;20485;-63
2021/06/06 07:20:41;;;;;;;12.23;11.10;;;;;;;;;;4975414;28;20832;-64
2021/06/06 07:23:08;;;;;;;12.57;11.37;;;;;;;;;;4974252;28;20447;-64
2021/06/06 07:25:35;;;;;;;14.00;12.80;;;;;;;;;;4987074;28;21052;-66
2021/06/06 07:28:05;;;;;;;12.10;11.10;;;;;;;;;;4993212;28;20467;-65
2021/06/06 07:30:33;;;;;;;11.60;10.60;;;;;;;;;;4986565;28;20451;-65
2021/06/06 07:33:00;;;;;;;12.10;11.20;;;;;;;;;;4988206;28;20462;-65
2021/06/06 07:35:28;;;;;;;19.40;17.77;;;;;;;;;;4972872;28;20812;-67
2021/06/06 07:37:55;;;;;;;21.07;18.93;;;;;;;;;;4974062;28;20448;-65
2021/06/06 07:40:23;;;;;;;23.57;21.43;;;;;;;;;;4974431;28;20481;-65
2021/06/06 07:42:50;;;;;;;21.77;19.97;;;;;;;;;;4985887;28;20461;-68
2021/06/06 07:45:18;;;;;;;43.50;39.87;;;;;;;;;;4992327;28;20960;-67
2021/06/06 07:47:45;;;;;;;36.70;33.97;;;;;;;;;;4981474;28;20467;-69
2021/06/06 07:50:12;;;;;;;59.07;54.60;;;;;;;;;;4982776;28;20458;-69
2021/06/06 07:52:39;;;;;;;53.63;49.60;;;;;;;;;;4985692;28;20450;-68
2021/06/06 07:55:07;;;;;;;37.63;34.77;;;;;;;;;;4993721;28;20458;-65
2021/06/06 07:57:33;;;;;;;31.07;28.73;;;;;;;;;;4986662;28;20966;-65
2021/06/06 08:00:00;;;;;;;21.83;20.13;;;;;;;;;;4976894;28;20491;-63
2021/06/06 08:02:28;;;;;;;22.70;20.60;;;;;;;;;;4974878;28;20461;-64
2021/06/06 08:04:55;;;;;;;21.00;19.00;;;;;;;;;;4973817;28;20463;-63
2021/06/06 08:07:22;;;;;;;19.47;17.67;;;;;;;;;;4973001;28;20465;-62
2021/06/06 08:09:48;;;;;;;24.80;22.80;;;;;;;;;;4973295;28;20483;-63
2021/06/06 08:12:15;;;;;;;37.70;34.93;;;;;;;;;;4973249;28;21033;-61
2021/06/06 08:14:42;;;;;;;41.50;38.30;;;;;;;;;;4992432;28;20480;-61
2021/06/06 08:17:08;;;;;;;45.37;42.00;;;;;;;;;;4983560;28;20456;-68
2021/06/06 08:19:36;;;;;;;44.83;41.33;;;;;;;;;;4975808;28;20471;-78
2021/06/06 08:22:04;;;;;;;45.30;41.70;;;;;;;;;;4975008;28;20807;-71
2021/06/06 08:24:30;;;;;;;44.27;40.63;;;;;;;;;;4975998;28;20950;-72
2021/06/06 08:26:57;;;;;;;46.63;42.93;;;;;;;;;;4987100;28;20490;-70
2021/06/06 08:29:23;;;;;;;43.83;39.87;;;;;;;;;;4983887;28;20485;-67
2021/06/06 08:31:52;;;;;;;48.40;44.57;;;;;;;;;;4992094;28;20461;-72
2021/06/06 08:34:21;;;;;;;47.90;44.17;;;;;;;;;;4994471;28;20451;-73
2021/06/06 08:36:49;;;;;;;46.10;42.47;;;;;;;;;;4994338;28;20969;-79
2021/06/06 08:39:18;;;;;;;47.00;43.33;;;;;;;;;;4994658;28;20478;-70
2021/06/06 08:41:47;;;;;;;42.73;39.43;;;;;;;;;;4995533;28;20460;-71
2021/06/06 08:44:17;;;;;;;44.67;41.07;;;;;;;;;;4995911;28;20458;-74
2021/06/06 08:46:47;;;;;;;44.30;40.80;;;;;;;;;;4994303;28;20482;-69
2021/06/06 08:49:14;;;;;;;45.83;42.33;;;;;;;;;;4996108;28;20470;-72
2021/06/06 08:51:42;;;;;;;43.13;39.90;;;;;;;;;;4995079;28;20458;-66
2021/06/06 08:54:18;;;;;;;42.13;38.93;;;;;;;;;;4994024;28;20810;-67
2021/06/06 08:56:45;;;;;;;42.40;39.20;;;;;;;;;;4993141;28;20450;-68
2021/06/06 08:59:13;;;;;;;41.90;38.80;;;;;;;;;;4993356;28;20486;-68
2021/06/06 09:01:42;;;;;;;42.03;38.87;;;;;;;;;;4992988;28;20453;-68
2021/06/06 09:04:12;;;;;;;42.40;39.03;;;;;;;;;;4992849;28;20462;-67
2021/06/06 09:06:41;;;;;;;39.23;36.27;;;;;;;;;;4991806;28;20553;-68
2021/06/06 09:09:08;;;;;;;44.70;40.97;;;;;;;;;;4992305;28;20993;-65
2021/06/06 09:11:36;;;;;;;40.47;37.17;;;;;;;;;;4992422;28;20458;-65
2021/06/06 09:14:03;;;;;;;40.70;37.57;;;;;;;;;;4992470;28;20465;-65
2021/06/06 09:16:33;;;;;;;41.10;37.83;;;;;;;;;;4991578;28;20446;-65
2021/06/06 09:19:00;;;;;;;43.53;40.17;;;;;;;;;;4992202;28;20484;-65
2021/06/06 09:21:27;;;;;;;44.00;40.70;;;;;;;;;;4992566;28;20454;-66
2021/06/06 09:24:04;;;;;;;43.97;40.60;;;;;;;;;;4992315;28;20443;-65
2021/06/06 09:26:30;;;;;;;41.77;38.50;;;;;;;;;;4991339;28;20482;-65
2021/06/06 09:29:10;;;;;;;44.20;40.50;;;;;;;;;;4992508;28;20855;-67
2021/06/06 09:31:37;;;;;;;43.60;40.17;;;;;;;;;;4997155;28;20451;-65
2021/06/06 09:34:05;;;;;;;46.97;43.17;;;;;;;;;;4997777;28;20504;-66
2021/06/06 09:36:32;;;;;;;43.47;40.17;;;;;;;;;;4995432;28;20537;-65
2021/06/06 09:39:08;;;;;;;46.97;43.00;;;;;;;;;;4995315;28;20549;-65
2021/06/06 09:41:37;;;;;;;42.17;39.07;;;;;;;;;;4995061;28;20430;-65
2021/06/06 09:44:06;;;;;;;43.67;40.07;;;;;;;;;;4992340;28;20454;-65
2021/06/06 09:46:35;;;;;;;44.53;41.03;;;;;;;;;;4991144;28;20486;-65
2021/06/06 09:49:10;;;;;;;44.13;40.83;;;;;;;;;;4992743;28;20474;-65
2021/06/06 09:51:37;;;;;;;43.37;39.80;;;;;;;;;;4995737;28;20453;-64
2021/06/06 09:54:11;;;;;;;41.30;38.17;;;;;;;;;;4995626;28;20443;-64
2021/06/06 09:56:38;;;;;;;41.60;38.20;;;;;;;;;;4994948;28;20442;-65
2021/06/06 09:59:09;;;;;;;41.20;37.93;;;;;;;;;;5021040;22;20506;-68
2021/06/06 10:01:38;;;;;;;41.80;38.60;;;;;;;;;;5013070;28;20471;-68
2021/06/06 10:04:06;;;;;;;42.53;39.37;;;;;;;;;;5015577;28;20449;-68
2021/06/06 10:06:34;;;;;;;41.50;38.30;;;;;;;;;;5013938;28;20492;-68
2021/06/06 10:09:02;;;;;;;40.87;37.57;;;;;;;;;;5014530;28;20473;-68
2021/06/06 10:11:33;;;;;;;40.70;37.50;;;;;;;;;;5014813;28;20846;-68
2021/06/06 10:14:01;;;;;;;39.77;36.63;;;;;;;;;;5014476;28;20819;-68
2021/06/06 10:16:31;;;;;;;39.57;36.47;;;;;;;;;;5013769;28;20442;-68
2021/06/06 10:19:02;;;;;;;39.40;36.37;;;;;;;;;;5014288;28;20476;-68
2021/06/06 10:21:32;;;;;;;39.33;36.30;;;;;;;;;;5014284;28;20469;-68
2021/06/06 10:24:00;;;;;;;37.50;34.60;;;;;;;;;;5014562;28;20454;-68
2021/06/06 10:26:32;;;;;;;40.77;37.50;;;;;;;;;;5013443;28;20536;-67
2021/06/06 10:29:02;;;;;;;38.43;35.53;;;;;;;;;;5013821;28;20488;-68
2021/06/06 10:31:30;;;;;;;40.00;36.77;;;;;;;;;;5014454;28;20445;-67
2021/06/06 10:33:58;;;;;;;38.63;35.63;;;;;;;;;;5014557;28;20477;-67
2021/06/06 10:36:27;;;;;;;39.40;36.30;;;;;;;;;;5013472;28;20452;-67
2021/06/06 10:38:54;;;;;;;41.53;38.30;;;;;;;;;;5013940;28;20465;-68
2021/06/06 10:41:23;;;;;;;41.20;37.93;;;;;;;;;;5014244;28;20453;-68
2021/06/06 10:43:53;;;;;;;41.90;38.50;;;;;;;;;;5014189;28;20484;-68
2021/06/06 10:46:22;;;;;;;42.23;38.83;;;;;;;;;;5012634;28;20480;-68
2021/06/06 10:48:51;;;;;;;41.20;37.90;;;;;;;;;;5013880;28;20477;-68
2021/06/06 10:51:27;;;;;;;42.67;39.23;;;;;;;;;;5013900;28;20453;-69
2021/06/06 10:53:57;;;;;;;43.47;39.80;;;;;;;;;;5013875;28;20813;-68
2021/06/06 10:56:32;;;;;;;43.70;40.20;;;;;;;;;;5013624;28;20446;-68
2021/06/06 10:59:03;;;;;;;44.73;41.00;;;;;;;;;;5013896;28;20492;-68
2021/06/06 11:01:31;;;;;;;42.30;39.00;;;;;;;;;;5013209;28;20454;-68
2021/06/06 11:04:15;;;;;;;42.07;38.77;;;;;;;;;;5013494;28;20937;-67
2021/06/06 11:06:43;;;;;;;40.90;37.53;;;;;;;;;;5012564;28;20969;-67
2021/06/06 11:09:22;;;;;;;43.00;39.53;;;;;;;;;;5013139;28;20509;-68
2021/06/06 11:11:56;;;;;;;42.20;38.80;;;;;;;;;;5013727;28;20449;-68
2021/06/06 11:14:30;;;;;;;42.57;39.07;;;;;;;;;;5013407;28;20441;-67
2021/06/06 11:17:06;;;;;;;42.40;39.00;;;;;;;;;;5012676;28;20481;-68
2021/06/06 11:19:33;;;;;;;42.93;39.37;;;;;;;;;;5013081;28;20847;-68
2021/06/06 11:22:11;;;;;;;41.07;37.97;;;;;;;;;;5013376;28;20453;-68
2021/06/06 11:24:47;;;;;;;42.03;38.53;;;;;;;;;;5013512;28;20494;-66
2021/06/06 11:27:30;;;;;;;43.03;39.57;;;;;;;;;;5012436;28;20582;-67
2021/06/06 11:29:58;;;;;;;44.17;40.63;;;;;;;;;;5013068;28;20544;-67
2021/06/06 11:32:27;;;;;;;43.80;40.30;;;;;;;;;;5013099;28;20959;-66
2021/06/06 11:35:11;;;;;;;47.63;43.53;;;;;;;;;;5012913;28;20905;-66
2021/06/06 11:37:40;;;;;;;42.60;39.13;;;;;;;;;;5012747;28;20452;-65
2021/06/06 11:40:11;;;;;;;45.50;42.10;;;;;;;;;;5013202;28;20466;-67
2021/06/06 11:42:40;;;;;;;44.90;41.30;;;;;;;;;;5013281;28;20444;-66
2021/06/06 11:45:09;;;;;;;44.10;40.60;;;;;;;;;;5013300;28;20453;-67
2021/06/06 11:47:44;;;;;;;43.23;39.73;;;;;;;;;;5012643;28;20500;-66
2021/06/06 11:50:12;;;;;;;42.87;39.23;;;;;;;;;;5012887;28;20467;-67
2021/06/06 11:52:42;;;;;;;44.07;40.43;;;;;;;;;;5012860;28;20503;-66
2021/06/06 11:55:13;;;;;;;39.53;36.23;;;;;;;;;;5012992;28;20445;-70
2021/06/06 11:57:42;;;;;;;41.10;37.80;;;;;;;;;;5012745;28;20430;-66
2021/06/06 12:00:10;;;;;;;39.20;36.20;;;;;;;;;;5012620;28;20470;-68
2021/06/06 12:02:37;;;;;;;39.80;36.80;;;;;;;;;;5012535;28;20536;-66
2021/06/06 12:05:12;;;;;;;36.30;33.70;;;;;;;;;;5012842;28;20448;-66
2021/06/06 12:07:43;;;;;;;40.43;37.43;;;;;;;;;;5012018;28;20468;-67
2021/06/06 12:10:20;;;;;;;41.17;38.07;;;;;;;;;;5012410;28;20476;-66
2021/06/06 12:12:49;;;;;;;41.03;37.90;;;;;;;;;;5011219;28;20520;-65
2021/06/06 12:15:18;;;;;;;40.00;36.90;;;;;;;;;;5011698;28;20959;-67
2021/06/06 12:17:45;;;;;;;39.03;36.03;;;;;;;;;;5011968;28;20449;-66
2021/06/06 12:20:13;;;;;;;41.33;38.30;;;;;;;;;;5012521;28;20469;-66
2021/06/06 12:22:41;;;;;;;41.93;38.93;;;;;;;;;;5012047;28;20453;-66
2021/06/06 12:25:18;;;;;;;42.17;39.17;;;;;;;;;;5012303;28;20458;-66
2021/06/06 12:27:48;;;;;;;44.10;40.77;;;;;;;;;;5012129;28;20449;-68
2021/06/06 12:30:20;;;;;;;43.30;40.20;;;;;;;;;;5012599;28;21034;-66
2021/06/06 12:32:55;;;;;;;43.60;40.20;;;;;;;;;;5012235;28;20433;-66
2021/06/06 12:35:23;;;;;;;42.73;39.63;;;;;;;;;;5011857;28;20453;-66
2021/06/06 12:37:53;;;;;;;42.30;38.97;;;;;;;;;;5012014;28;20484;-67
2021/06/06 12:40:21;;;;;;;41.73;38.67;;;;;;;;;;5011881;28;20473;-66
2021/06/06 12:42:54;;;;;;;40.53;37.33;;;;;;;;;;5012280;28;20514;-66
2021/06/06 12:45:21;;;;;;;39.93;37.17;;;;;;;;;;5011500;28;20457;-66
2021/06/06 12:47:48;;;;;;;38.53;35.53;;;;;;;;;;5011483;28;20446;-67
2021/06/06 12:50:22;;;;;;;42.13;39.03;;;;;;;;;;5012081;28;20465;-67
2021/06/06 12:52:51;;;;;;;38.40;35.63;;;;;;;;;;5012763;28;20444;-68
2021/06/06 12:55:23;;;;;;;42.23;39.27;;;;;;;;;;5011370;28;20457;-67
2021/06/06 12:57:52;;;;;;;39.77;36.90;;;;;;;;;;5012042;28;20897;-68
2021/06/06 13:00:23;;;;;;;40.67;37.77;;;;;;;;;;5011978;28;20485;-68
2021/06/06 13:02:50;;;;;;;39.80;36.90;;;;;;;;;;5011693;28;20434;-68
2021/06/06 13:05:29;;;;;;;40.17;37.30;;;;;;;;;;5011027;28;20456;-68
2021/06/06 13:07:57;;;;;;;41.07;38.10;;;;;;;;;;5011483;28;20453;-68
2021/06/06 13:10:29;;;;;;;40.03;37.03;;;;;;;;;;5011448;28;20469;-68
2021/06/06 13:12:57;;;;;;;43.03;39.70;;;;;;;;;;5011394;28;20991;-69
2021/06/06 13:15:35;;;;;;;41.90;39.00;;;;;;;;;;5011343;28;20875;-68
2021/06/06 13:18:05;;;;;;;44.40;40.93;;;;;;;;;;5011705;28;20449;-68
2021/06/06 13:20:33;;;;;;;41.77;38.63;;;;;;;;;;5011494;28;20473;-68
2021/06/06 13:23:03;;;;;;;40.87;37.87;;;;;;;;;;5011931;28;20445;-68
2021/06/06 13:25:33;;;;;;;42.67;39.50;;;;;;;;;;5014239;28;20469;-68
2021/06/06 13:28:12;;;;;;;43.90;40.40;;;;;;;;;;5015046;28;20445;-68
2021/06/06 13:30:40;;;;;;;43.57;40.30;;;;;;;;;;5015509;28;21081;-68
2021/06/06 13:33:09;;;;;;;44.37;41.07;;;;;;;;;;5015195;28;20513;-67
2021/06/06 13:35:36;;;;;;;46.27;42.67;;;;;;;;;;5014947;28;20455;-68
2021/06/06 13:38:03;;;;;;;47.30;43.70;;;;;;;;;;5015328;28;20800;-69
2021/06/06 13:40:33;;;;;;;48.10;44.17;;;;;;;;;;5015139;28;20476;-68
2021/06/06 13:43:01;;;;;;;49.47;45.47;;;;;;;;;;5014998;28;20536;-67
2021/06/06 13:45:29;;;;;;;51.83;47.43;;;;;;;;;;5014177;28;20453;-68
2021/06/06 13:47:57;;;;;;;50.53;46.47;;;;;;;;;;5015084;28;20820;-68
2021/06/06 13:50:24;;;;;;;48.97;45.23;;;;;;;;;;5015244;28;20481;-67
2021/06/06 13:52:52;;;;;;;51.10;47.10;;;;;;;;;;5015245;28;20450;-68
2021/06/06 13:55:20;;;;;;;51.73;47.73;;;;;;;;;;5014514;28;20464;-69
2021/06/06 13:57:47;;;;;;;50.73;46.63;;;;;;;;;;5014944;28;20441;-69
2021/06/06 14:00:17;;;;;;;50.87;46.83;;;;;;;;;;5014460;28;20488;-68
2021/06/06 14:02:45;;;;;;;48.63;44.80;;;;;;;;;;5015014;28;20456;-68
2021/06/06 14:05:12;;;;;;;50.53;46.43;;;;;;;;;;5014479;28;20971;-65
2021/06/06 14:07:39;;;;;;;50.10;45.70;;;;;;;;;;5014197;28;20996;-68
2021/06/06 14:10:07;;;;;;;52.00;47.73;;;;;;;;;;5014969;28;20462;-67
2021/06/06 14:12:34;;;;;;;50.80;46.60;;;;;;;;;;5014510;28;20446;-66
2021/06/06 14:15:01;;;;;;;49.50;45.70;;;;;;;;;;5014426;28;20875;-69
2021/06/06 14:17:29;;;;;;;51.17;47.00;;;;;;;;;;5013799;28;20959;-68
2021/06/06 14:19:55;;;;;;;52.90;48.80;;;;;;;;;;5014451;28;20475;-69
2021/06/06 14:22:22;;;;;;;54.77;50.17;;;;;;;;;;5014540;28;20450;-68
2021/06/06 14:24:48;;;;;;;53.77;49.37;;;;;;;;;;5014625;28;20453;-68